Time;durP1;ratioP1;P1;durP2;ratioP2;P2;SDS_P1;SDS_P2;PMS_P1;PMS_P2;Temp;Humidity;BMP_temperature;BMP_pressure;BME280_temperature;BME280_humidity;BME280_pressure;Samples;Min_cycle;Max_cycle;Signal;HPM_P1;HPM_P2
2021/12/24 00:01:09;;;;;;;;;;;10.60;99.90;;;;;;5074779;28;19958;-79
2021/12/24 00:03:35;;;;;;;;;;;10.60;99.90;;;;;;5074663;28;19909;-78
2021/12/24 00:06:02;;;;;;;;;;;10.40;99.90;;;;;;5056567;28;19908;-81
2021/12/24 00:08:27;;;;;;;;;;;10.40;99.90;;;;;;5074044;28;19949;-78
2021/12/24 00:11:02;;;;;;;;;;;10.30;99.90;;;;;;5074584;28;19909;-78
2021/12/24 00:13:29;;;;;;;;;;;10.40;99.90;;;;;;5074313;28;19937;-78
2021/12/24 00:19:00;;;;;;;;;;;10.30;99.90;;;;;;5040201;28;20380;-79
2021/12/24 00:35:12;;;;;;;;;;;10.20;99.90;;;;;;5094102;28;19923;-79
2021/12/24 00:37:39;;;;;;;;;;;10.20;99.90;;;;;;5084270;28;19909;-79
2021/12/24 00:42:31;;;;;;;;;;;10.30;99.90;;;;;;5073964;28;19909;-78
2021/12/24 00:44:57;;;;;;;;;;;10.30;99.90;;;;;;5074477;28;19908;-80
2021/12/24 00:47:24;;;;;;;;;;;10.20;99.90;;;;;;5055663;28;20280;-80
2021/12/24 00:49:50;;;;;;;;;;;10.20;99.90;;;;;;5055873;28;19909;-78
2021/12/24 00:52:31;;;;;;;;;;;10.10;99.90;;;;;;5073844;28;19915;-79
2021/12/24 00:55:03;;;;;;;;;;;10.00;99.90;;;;;;5073682;28;19916;-78
2021/12/24 00:57:29;;;;;;;;;;;10.10;99.90;;;;;;5059883;28;19909;-80
2021/12/24 00:59:55;;;;;;;;;;;10.10;99.90;;;;;;5072178;28;19912;-79
2021/12/24 01:02:21;;;;;;;;;;;10.10;99.90;;;;;;5072451;28;19908;-79
2021/12/24 01:04:46;;;;;;;;;;;10.00;99.90;;;;;;5072369;28;19927;-79
2021/12/24 01:07:12;;;;;;;;;;;9.90;99.90;;;;;;5078503;28;19961;-81
2021/12/24 01:09:38;;;;;;;;;;;9.90;99.90;;;;;;5075711;28;20253;-80
2021/12/24 01:12:04;;;;;;;;;;;9.80;99.90;;;;;;5093815;28;19908;-78
2021/12/24 01:14:30;;;;;;;;;;;9.70;99.90;;;;;;5093307;28;19970;-81
2021/12/24 01:17:15;;;;;;;;;;;9.50;99.90;;;;;;5093353;28;20002;-78
2021/12/24 01:19:43;;;;;;;;;;;9.50;99.90;;;;;;5092190;28;19908;-81
2021/12/24 01:25:00;;;;;;;;;;;9.80;99.90;;;;;;5093629;28;20399;-79
2021/12/24 01:38:09;;;;;;;;;;;10.10;99.90;;;;;;5093003;28;19915;-78
2021/12/24 01:41:06;;;;;;;;;;;10.10;99.90;;;;;;5093422;28;19934;-79
2021/12/24 01:43:24;;;;;;;;;;;10.20;99.90;;;;;;5097751;28;20445;-80
2021/12/24 01:45:51;;;;;;;;;;;10.10;99.90;;;;;;5100311;28;19908;-79
2021/12/24 01:48:17;;;;;;;;;;;10.10;99.90;;;;;;5068421;28;19919;-77
2021/12/24 01:50:45;;;;;;;;;;;10.10;99.90;;;;;;5079900;28;19999;-79
2021/12/24 01:53:11;;;;;;;;;;;10.20;99.90;;;;;;5079703;28;19919;-80
2021/12/24 01:55:38;;;;;;;;;;;10.20;99.90;;;;;;5079704;28;19912;-82
2021/12/24 01:58:03;;;;;;;;;;;10.20;99.90;;;;;;5079383;28;19952;-78
2021/12/24 02:00:31;;;;;;;;;;;10.20;99.90;;;;;;5079405;28;20284;-78
2021/12/24 02:02:57;;;;;;;;;;;10.30;99.90;;;;;;5079769;28;19912;-80
2021/12/24 02:05:23;;;;;;;;;;;10.20;99.90;;;;;;5079640;28;19908;-80
2021/12/24 02:07:49;;;;;;;;;;;10.30;99.90;;;;;;5087993;28;19908;-79
2021/12/24 02:10:15;;;;;;;;;;;10.20;99.90;;;;;;5099886;28;19997;-78
2021/12/24 02:12:41;;;;;;;;;;;10.10;99.90;;;;;;5099941;28;19908;-80
2021/12/24 02:15:11;;;;;;;;;;;10.10;99.90;;;;;;5099301;28;19931;-79
2021/12/24 02:28:30;;;;;;;;;;;10.10;99.90;;;;;;5080051;28;19977;-79
2021/12/24 02:30:56;;;;;;;;;;;10.20;99.90;;;;;;5098251;28;19927;-79
2021/12/24 02:33:22;;;;;;;;;;;10.20;99.90;;;;;;5099513;28;20348;-79
2021/12/24 02:35:48;;;;;;;;;;;10.10;99.90;;;;;;5099760;28;19912;-79
2021/12/24 02:38:13;;;;;;;;;;;10.10;99.90;;;;;;5081015;28;19995;-80
2021/12/24 02:40:39;;;;;;;;;;;10.00;99.90;;;;;;5099612;28;19908;-79
2021/12/24 02:43:08;;;;;;;;;;;10.00;99.90;;;;;;5099513;28;19953;-78
2021/12/24 02:45:35;;;;;;;;;;;10.00;99.90;;;;;;5099294;28;19908;-78
2021/12/24 02:55:58;;;;;;;;;;;10.00;99.90;;;;;;5096474;28;19957;-79
2021/12/24 02:58:23;;;;;;;;;;;10.00;99.90;;;;;;5095875;28;19999;-78
2021/12/24 03:00:49;;;;;;;;;;;10.00;99.90;;;;;;5096222;28;19915;-79
2021/12/24 03:03:15;;;;;;;;;;;10.00;99.90;;;;;;5096210;28;20010;-79
2021/12/24 03:05:40;;;;;;;;;;;10.10;99.90;;;;;;5096122;28;19915;-81
2021/12/24 03:08:06;;;;;;;;;;;10.10;99.90;;;;;;5077449;28;19953;-77
2021/12/24 03:10:35;;;;;;;;;;;10.20;99.90;;;;;;5095745;28;20369;-79
2021/12/24 03:13:00;;;;;;;;;;;10.20;99.90;;;;;;5096143;28;19908;-81
2021/12/24 03:15:26;;;;;;;;;;;10.20;99.90;;;;;;5095563;28;20336;-81
2021/12/24 03:17:55;;;;;;;;;;;10.30;99.90;;;;;;5095619;28;20273;-80
2021/12/24 03:20:21;;;;;;;;;;;10.30;99.90;;;;;;5095625;28;19915;-81
2021/12/24 03:23:11;;;;;;;;;;;10.30;99.90;;;;;;5095794;28;19912;-78
2021/12/24 03:25:36;;;;;;;;;;;10.30;99.90;;;;;;5077249;28;19908;-80
2021/12/24 03:28:02;;;;;;;;;;;10.30;99.90;;;;;;5095469;28;19934;-81
2021/12/24 03:30:28;;;;;;;;;;;10.30;99.90;;;;;;5076404;28;19923;-78
2021/12/24 03:32:54;;;;;;;;;;;10.40;99.90;;;;;;5095586;28;19953;-77
2021/12/24 03:35:19;;;;;;;;;;;10.40;99.90;;;;;;5095601;28;20275;-78
2021/12/24 03:37:45;;;;;;;;;;;10.40;99.90;;;;;;5095187;28;19908;-81
2021/12/24 03:40:11;;;;;;;;;;;10.50;99.90;;;;;;5095422;28;19965;-79
2021/12/24 03:42:39;;;;;;;;;;;10.40;99.90;;;;;;5095360;28;20319;-79
2021/12/24 03:45:20;;;;;;;;;;;10.50;99.90;;;;;;5095273;28;19908;-81
2021/12/24 03:47:52;;;;;;;;;;;10.50;99.90;;;;;;5076614;28;19909;-78
2021/12/24 03:50:18;;;;;;;;;;;10.60;99.90;;;;;;5095267;28;19908;-79
2021/12/24 03:53:05;;;;;;;;;;;10.50;99.90;;;;;;5095329;28;19908;-77
2021/12/24 03:55:31;;;;;;;;;;;10.50;99.90;;;;;;5076825;28;19919;-77
2021/12/24 03:57:57;;;;;;;;;;;10.50;99.90;;;;;;5094791;28;20325;-78
2021/12/24 04:00:25;;;;;;;;;;;10.40;99.90;;;;;;5094870;28;19908;-78
2021/12/24 04:02:51;;;;;;;;;;;10.40;99.90;;;;;;5095003;28;19954;-81
2021/12/24 04:05:17;;;;;;;;;;;10.50;99.90;;;;;;5076384;28;19912;-79
2021/12/24 04:07:43;;;;;;;;;;;10.50;99.90;;;;;;5094517;28;19909;-78
2021/12/24 04:10:20;;;;;;;;;;;10.50;99.90;;;;;;5094889;28;20261;-78
2021/12/24 04:12:46;;;;;;;;;;;10.50;99.90;;;;;;5076329;28;20002;-79
2021/12/24 04:15:11;;;;;;;;;;;10.40;99.90;;;;;;5094447;28;20003;-79
2021/12/24 04:17:39;;;;;;;;;;;10.40;99.90;;;;;;5076347;28;19916;-82
2021/12/24 04:25:33;;;;;;;;;;;10.50;99.90;;;;;;5094704;28;19916;-79
2021/12/24 04:28:00;;;;;;;;;;;10.50;99.90;;;;;;5094210;28;19908;-79
2021/12/24 04:30:31;;;;;;;;;;;10.60;99.90;;;;;;5075551;28;19916;-79
2021/12/24 04:33:09;;;;;;;;;;;10.60;99.90;;;;;;5075898;28;19912;-80
2021/12/24 04:35:55;;;;;;;;;;;10.60;99.90;;;;;;5094492;28;19908;-77
2021/12/24 04:51:48;;;;;;;;;;;10.50;99.90;;;;;;5073658;28;19919;-78
2021/12/24 05:05:17;;;;;;;;;;;10.60;99.90;;;;;;5073366;28;19915;-78
2021/12/24 05:10:09;;;;;;;;;;;10.50;99.90;;;;;;5073704;28;20454;-77
2021/12/24 05:12:34;;;;;;;;;;;10.50;99.90;;;;;;5073669;28;19942;-77
2021/12/24 05:15:01;;;;;;;;;;;10.40;99.90;;;;;;5073012;28;19920;-78
2021/12/24 05:22:56;;;;;;;;;;;10.40;99.90;;;;;;5073190;28;20008;-79
2021/12/24 05:25:22;;;;;;;;;;;10.40;99.90;;;;;;5073487;28;19991;-79
2021/12/24 05:27:47;;;;;;;;;;;10.40;99.90;;;;;;5073127;28;19912;-80
2021/12/24 05:30:13;;;;;;;;;;;10.40;99.90;;;;;;5054095;28;20401;-80
2021/12/24 05:32:39;;;;;;;;;;;10.40;99.90;;;;;;5073300;28;19908;-78
2021/12/24 05:35:05;;;;;;;;;;;10.30;99.90;;;;;;5073153;28;19999;-78
2021/12/24 05:37:30;;;;;;;;;;;10.20;99.90;;;;;;5055367;28;20262;-81
2021/12/24 05:39:56;;;;;;;;;;;10.20;99.90;;;;;;5072698;28;19919;-79
2021/12/24 05:42:24;;;;;;;;;;;10.20;99.90;;;;;;5073219;28;19915;-79
2021/12/24 05:44:49;;;;;;;;;;;10.20;99.90;;;;;;5072972;28;19948;-78
2021/12/24 05:47:15;;;;;;;;;;;10.20;99.90;;;;;;5073122;28;19959;-79
2021/12/24 05:49:42;;;;;;;;;;;10.20;99.90;;;;;;5072705;28;19909;-78
2021/12/24 05:52:08;;;;;;;;;;;10.20;99.90;;;;;;5073067;28;20027;-78
2021/12/24 05:54:33;;;;;;;;;;;10.20;99.90;;;;;;5073034;28;20010;-80
2021/12/24 05:56:59;;;;;;;;;;;10.10;99.90;;;;;;5055158;28;19913;-79
2021/12/24 05:59:24;;;;;;;;;;;10.10;99.90;;;;;;5072606;28;20399;-80
2021/12/24 06:01:50;;;;;;;;;;;10.20;99.90;;;;;;5073165;28;19915;-79
2021/12/24 06:04:16;;;;;;;;;;;10.20;99.90;;;;;;5054930;28;20434;-78
2021/12/24 06:06:41;;;;;;;;;;;10.20;99.90;;;;;;5055013;28;19959;-78
2021/12/24 06:09:07;;;;;;;;;;;10.10;99.90;;;;;;5054611;28;19912;-80
2021/12/24 06:11:33;;;;;;;;;;;10.20;99.90;;;;;;5072939;28;19908;-79
2021/12/24 06:14:06;;;;;;;;;;;10.10;99.90;;;;;;5054585;28;20004;-81
2021/12/24 06:16:31;;;;;;;;;;;10.10;99.90;;;;;;5072908;28;20046;-77
2021/12/24 06:19:01;;;;;;;;;;;10.10;99.90;;;;;;5082548;28;20396;-79
2021/12/24 06:21:27;;;;;;;;;;;10.10;99.90;;;;;;5074934;28;20254;-79
2021/12/24 06:23:52;;;;;;;;;;;10.20;99.90;;;;;;5093115;28;19955;-79
2021/12/24 06:26:18;;;;;;;;;;;10.10;99.90;;;;;;5092964;28;19908;-79
2021/12/24 06:28:44;;;;;;;;;;;10.10;99.90;;;;;;5094482;28;19974;-79
2021/12/24 06:31:09;;;;;;;;;;;10.20;99.90;;;;;;5077284;28;19962;-81
2021/12/24 06:33:35;;;;;;;;;;;10.20;99.90;;;;;;5096706;28;19916;-79
2021/12/24 06:36:01;;;;;;;;;;;10.20;99.90;;;;;;5096664;28;19908;-79
2021/12/24 06:38:27;;;;;;;;;;;10.10;99.90;;;;;;5096283;28;19915;-78
2021/12/24 06:40:53;;;;;;;;;;;10.20;99.90;;;;;;5096641;28;20440;-78
2021/12/24 06:43:18;;;;;;;;;;;10.20;99.90;;;;;;5078199;28;19915;-82
2021/12/24 06:45:47;;;;;;;;;;;10.20;99.90;;;;;;5096591;28;19909;-82
2021/12/24 06:48:12;;;;;;;;;;;10.20;99.90;;;;;;5077997;28;19939;-78
2021/12/24 06:50:38;;;;;;;;;;;10.30;99.90;;;;;;5096491;28;20372;-79
2021/12/24 06:53:04;;;;;;;;;;;10.20;99.90;;;;;;5096252;28;19908;-79
2021/12/24 06:55:29;;;;;;;;;;;10.20;99.90;;;;;;5096215;28;19950;-80
2021/12/24 06:57:56;;;;;;;;;;;10.20;99.90;;;;;;5096108;28;19908;-79
2021/12/24 07:00:22;;;;;;;;;;;10.10;99.90;;;;;;5075707;28;19909;-80
2021/12/24 07:02:48;;;;;;;;;;;10.10;99.90;;;;;;5075990;28;19913;-80
2021/12/24 07:05:14;;;;;;;;;;;10.10;99.90;;;;;;5076069;28;19909;-80
2021/12/24 07:07:40;;;;;;;;;;;10.10;99.90;;;;;;5075660;28;19909;-79
2021/12/24 07:10:06;;;;;;;;;;;10.10;99.90;;;;;;5075420;28;20369;-78
2021/12/24 07:12:32;;;;;;;;;;;10.10;99.90;;;;;;5075715;28;19916;-78
2021/12/24 07:14:57;;;;;;;;;;;10.00;99.90;;;;;;5075252;28;19924;-80
2021/12/24 07:17:23;;;;;;;;;;;10.00;99.90;;;;;;5075641;28;19932;-78
2021/12/24 07:19:49;;;;;;;;;;;10.00;99.90;;;;;;5075204;28;20276;-79
2021/12/24 07:22:16;;;;;;;;;;;10.00;99.90;;;;;;5075675;28;19908;-78
2021/12/24 07:24:42;;;;;;;;;;;10.00;99.90;;;;;;5057601;28;20373;-78
2021/12/24 07:27:08;;;;;;;;;;;10.10;99.90;;;;;;5075552;28;19915;-80
2021/12/24 07:29:33;;;;;;;;;;;10.00;99.90;;;;;;5068723;28;19908;-77
2021/12/24 07:31:59;;;;;;;;;;;10.00;99.90;;;;;;5095536;28;20328;-78
2021/12/24 07:34:24;;;;;;;;;;;10.10;99.90;;;;;;5095633;28;19912;-79
2021/12/24 07:36:50;;;;;;;;;;;10.00;99.90;;;;;;5095094;28;19908;-79
2021/12/24 07:39:16;;;;;;;;;;;10.10;99.90;;;;;;5083808;28;19995;-79
2021/12/24 07:41:42;;;;;;;;;;;10.00;99.90;;;;;;5074682;28;19908;-79
2021/12/24 07:44:08;;;;;;;;;;;10.10;99.90;;;;;;5075070;28;19916;-79
2021/12/24 07:46:43;;;;;;;;;;;10.10;99.90;;;;;;5075171;28;19974;-79
2021/12/24 07:52:14;;;;;;;;;;;10.10;99.90;;;;;;5061370;28;20284;-79
2021/12/24 07:54:48;;;;;;;;;;;10.00;99.90;;;;;;5056579;28;19912;-78
2021/12/24 07:57:15;;;;;;;;;;;10.00;99.90;;;;;;5056732;28;20339;-79
2021/12/24 07:59:41;;;;;;;;;;;10.00;99.90;;;;;;5074386;28;19909;-79
2021/12/24 08:02:10;;;;;;;;;;;10.00;99.90;;;;;;5074798;28;20412;-77
2021/12/24 08:04:37;;;;;;;;;;;10.00;99.90;;;;;;5074621;28;20444;-81
2021/12/24 08:07:02;;;;;;;;;;;10.00;99.90;;;;;;5074533;28;19908;-77
2021/12/24 08:09:28;;;;;;;;;;;10.00;99.90;;;;;;5074204;28;20339;-79
2021/12/24 08:11:53;;;;;;;;;;;10.00;99.90;;;;;;5074449;28;19909;-80
2021/12/24 08:14:19;;;;;;;;;;;10.00;99.90;;;;;;5074158;28;20042;-79
2021/12/24 08:16:45;;;;;;;;;;;10.00;99.90;;;;;;5074402;28;20300;-77
2021/12/24 08:19:10;;;;;;;;;;;10.10;99.90;;;;;;5074161;28;19961;-81
2021/12/24 08:21:36;;;;;;;;;;;10.10;99.90;;;;;;5074314;28;19986;-80
2021/12/24 08:24:02;;;;;;;;;;;10.10;99.90;;;;;;5074472;28;19908;-78
2021/12/24 08:26:29;;;;;;;;;;;10.10;99.90;;;;;;5074399;28;19912;-79
2021/12/24 08:28:54;;;;;;;;;;;10.20;99.90;;;;;;5073925;28;20400;-79
2021/12/24 08:31:20;;;;;;;;;;;10.10;99.90;;;;;;5054917;28;19923;-80
2021/12/24 08:33:46;;;;;;;;;;;10.20;99.90;;;;;;5073901;28;19912;-78
2021/12/24 08:36:11;;;;;;;;;;;10.20;99.90;;;;;;5074036;28;19913;-80
2021/12/24 08:38:37;;;;;;;;;;;10.30;99.90;;;;;;5073763;28;20331;-79
2021/12/24 08:41:02;;;;;;;;;;;10.30;99.90;;;;;;5073975;28;20380;-79
2021/12/24 08:43:28;;;;;;;;;;;10.30;99.90;;;;;;5073905;28;20023;-77
2021/12/24 08:45:54;;;;;;;;;;;10.30;99.90;;;;;;5073880;28;19909;-78
2021/12/24 08:48:19;;;;;;;;;;;10.40;99.90;;;;;;5074056;28;19915;-81
2021/12/24 08:50:45;;;;;;;;;;;10.40;99.90;;;;;;5073976;28;19915;-78
2021/12/24 08:53:12;;;;;;;;;;;10.40;99.90;;;;;;5055832;28;19916;-78
2021/12/24 08:55:38;;;;;;;;;;;10.40;99.90;;;;;;5073595;28;19913;-79
2021/12/24 08:58:04;;;;;;;;;;;10.40;99.90;;;;;;5073797;28;19932;-79
2021/12/24 09:00:30;;;;;;;;;;;10.30;99.90;;;;;;5073248;28;19909;-78
2021/12/24 09:02:56;;;;;;;;;;;10.30;99.90;;;;;;5073653;28;19995;-82
2021/12/24 09:05:22;;;;;;;;;;;10.40;99.90;;;;;;5073727;28;19944;-80
2021/12/24 09:07:48;;;;;;;;;;;10.40;99.90;;;;;;5073382;28;19913;-79
2021/12/24 09:10:14;;;;;;;;;;;10.40;99.90;;;;;;5055124;28;19908;-79
2021/12/24 09:12:42;;;;;;;;;;;10.40;99.90;;;;;;5073624;28;19934;-77
2021/12/24 09:15:08;;;;;;;;;;;10.40;99.90;;;;;;5073259;28;19925;-78
2021/12/24 09:17:34;;;;;;;;;;;10.40;99.90;;;;;;5073659;28;19908;-81
2021/12/24 09:19:59;;;;;;;;;;;10.40;99.90;;;;;;5055025;28;19973;-77
2021/12/24 09:22:31;;;;;;;;;;;10.50;99.90;;;;;;5055481;28;19955;-79
2021/12/24 09:24:57;;;;;;;;;;;10.40;99.90;;;;;;5073403;28;20377;-77
2021/12/24 09:27:23;;;;;;;;;;;10.50;99.90;;;;;;5073395;28;19916;-78
2021/12/24 09:29:49;;;;;;;;;;;10.60;99.90;;;;;;5074873;28;19915;-80
2021/12/24 09:32:14;;;;;;;;;;;10.50;99.90;;;;;;5086537;28;19916;-79
2021/12/24 09:34:40;;;;;;;;;;;10.50;99.90;;;;;;5093457;28;19912;-79
2021/12/24 09:37:06;;;;;;;;;;;10.60;99.90;;;;;;5075261;28;19988;-80
2021/12/24 09:39:31;;;;;;;;;;;10.70;99.90;;;;;;5093165;28;20283;-78
2021/12/24 09:41:58;;;;;;;;;;;10.80;99.90;;;;;;5092105;28;20423;-78
2021/12/24 09:44:24;;;;;;;;;;;10.90;99.90;;;;;;5074993;28;19908;-79
2021/12/24 09:46:49;;;;;;;;;;;10.90;99.90;;;;;;5093486;28;19999;-78
2021/12/24 09:49:15;;;;;;;;;;;10.90;99.90;;;;;;5092958;28;19914;-78
2021/12/24 09:51:42;;;;;;;;;;;10.90;99.90;;;;;;5075317;28;19916;-79
2021/12/24 09:54:08;;;;;;;;;;;10.90;99.90;;;;;;5074965;28;20006;-79
2021/12/24 09:56:34;;;;;;;;;;;10.80;99.90;;;;;;5092965;28;19934;-78
2021/12/24 09:59:00;;;;;;;;;;;10.80;99.90;;;;;;5092822;28;19908;-79
2021/12/24 10:01:30;;;;;;;;;;;10.70;99.90;;;;;;5093251;28;19961;-80
2021/12/24 10:04:09;;;;;;;;;;;10.80;99.90;;;;;;5095550;28;19908;-78
2021/12/24 10:06:35;;;;;;;;;;;10.80;99.90;;;;;;5097285;28;19915;-81
2021/12/24 10:09:16;;;;;;;;;;;10.90;99.90;;;;;;5097045;28;19915;-79
2021/12/24 10:11:51;;;;;;;;;;;11.00;99.90;;;;;;5078892;28;20003;-79
2021/12/24 10:14:19;;;;;;;;;;;10.90;99.90;;;;;;5096819;28;20120;-79
2021/12/24 10:16:45;;;;;;;;;;;11.10;99.90;;;;;;5097294;28;20003;-79
2021/12/24 10:19:11;;;;;;;;;;;11.10;99.90;;;;;;5096543;28;19908;-78
2021/12/24 10:21:37;;;;;;;;;;;11.20;99.90;;;;;;5097107;28;20357;-79
2021/12/24 10:24:10;;;;;;;;;;;11.20;99.90;;;;;;5097035;28;19959;-79
2021/12/24 10:26:38;;;;;;;;;;;11.20;99.90;;;;;;5096801;28;20003;-79
2021/12/24 10:29:03;;;;;;;;;;;11.20;99.90;;;;;;5093435;28;19912;-79
2021/12/24 10:31:49;;;;;;;;;;;11.30;99.90;;;;;;5057189;28;20053;-80
2021/12/24 10:34:22;;;;;;;;;;;11.30;99.90;;;;;;5075844;28;19994;-81
2021/12/24 10:36:52;;;;;;;;;;;11.40;99.90;;;;;;5076622;28;19974;-79
2021/12/24 10:39:18;;;;;;;;;;;11.40;99.90;;;;;;5080892;28;19912;-78
2021/12/24 10:41:46;;;;;;;;;;;11.30;99.90;;;;;;5096703;28;19915;-79
2021/12/24 10:44:16;;;;;;;;;;;11.30;99.90;;;;;;5096376;28;19908;-80
2021/12/24 10:46:55;;;;;;;;;;;11.20;99.90;;;;;;5096569;28;19908;-79
2021/12/24 10:49:35;;;;;;;;;;;11.10;99.90;;;;;;5077820;28;19908;-77
2021/12/24 10:52:13;;;;;;;;;;;11.10;99.90;;;;;;5096612;28;19909;-78
2021/12/24 10:54:51;;;;;;;;;;;11.20;99.90;;;;;;5096286;28;20001;-79
2021/12/24 10:57:17;;;;;;;;;;;11.40;99.90;;;;;;5096304;28;19916;-79
2021/12/24 10:59:44;;;;;;;;;;;11.40;99.90;;;;;;5095887;28;19908;-79
2021/12/24 11:02:10;;;;;;;;;;;11.50;99.90;;;;;;5096136;28;19908;-78
2021/12/24 11:04:36;;;;;;;;;;;11.60;99.90;;;;;;5095563;28;20303;-79
2021/12/24 11:07:02;;;;;;;;;;;11.80;99.90;;;;;;5095790;28;19916;-80
2021/12/24 11:09:28;;;;;;;;;;;11.90;99.90;;;;;;5095658;28;19912;-80
2021/12/24 11:11:55;;;;;;;;;;;12.00;99.90;;;;;;5078273;28;20002;-80
2021/12/24 11:14:21;;;;;;;;;;;12.30;99.90;;;;;;5094634;28;19920;-80
2021/12/24 11:16:47;;;;;;;;;;;12.30;99.90;;;;;;5077129;28;19946;-80
2021/12/24 11:19:13;;;;;;;;;;;12.10;99.90;;;;;;5092341;28;19965;-79
2021/12/24 11:21:38;;;;;;;;;;;12.00;99.90;;;;;;5075453;28;19909;-79
2021/12/24 11:24:04;;;;;;;;;;;11.80;99.90;;;;;;5075307;28;20385;-78
2021/12/24 11:26:33;;;;;;;;;;;11.80;99.90;;;;;;5075372;28;19908;-79
2021/12/24 11:28:58;;;;;;;;;;;11.70;99.90;;;;;;5074704;28;19909;-80
2021/12/24 11:31:25;;;;;;;;;;;11.60;99.90;;;;;;5055803;28;19932;-81
2021/12/24 11:33:52;;;;;;;;;;;11.50;99.90;;;;;;5074873;28;19966;-79
2021/12/24 11:36:18;;;;;;;;;;;11.50;99.90;;;;;;5075246;28;20486;-77
2021/12/24 11:38:48;;;;;;;;;;;11.40;99.90;;;;;;5074908;28;19944;-79
2021/12/24 11:41:15;;;;;;;;;;;11.40;99.90;;;;;;5093558;28;19908;-78
2021/12/24 11:43:42;;;;;;;;;;;11.10;99.90;;;;;;5094740;28;19915;-78
2021/12/24 11:46:09;;;;;;;;;;;11.10;99.90;;;;;;5095102;28;19962;-77
2021/12/24 11:48:35;;;;;;;;;;;11.10;99.90;;;;;;5095028;28;19914;-80
2021/12/24 11:51:02;;;;;;;;;;;11.20;99.90;;;;;;5094475;28;19998;-78
2021/12/24 11:53:30;;;;;;;;;;;11.20;99.90;;;;;;5076784;28;19966;-79
2021/12/24 11:56:00;;;;;;;;;;;11.10;99.90;;;;;;5094771;28;20342;-80
2021/12/24 11:58:26;;;;;;;;;;;11.10;99.90;;;;;;5094924;28;19908;-80
2021/12/24 12:00:53;;;;;;;;;;;11.10;99.90;;;;;;5094358;28;19908;-78
2021/12/24 12:03:31;;;;;;;;;;;11.10;99.90;;;;;;5076349;28;20325;-79
2021/12/24 12:05:57;;;;;;;;;;;11.10;99.90;;;;;;5094973;28;19913;-82
2021/12/24 12:08:24;;;;;;;;;;;11.10;99.90;;;;;;5076530;28;19957;-80
2021/12/24 12:10:54;;;;;;;;;;;11.10;99.90;;;;;;5076340;28;19908;-79
2021/12/24 12:13:39;;;;;;;;;;;11.10;99.90;;;;;;5094631;28;19908;-79
2021/12/24 12:16:07;;;;;;;;;;;11.20;99.90;;;;;;5094866;28;19908;-78
2021/12/24 12:18:43;;;;;;;;;;;11.30;99.90;;;;;;5094806;28;19908;-79
2021/12/24 12:21:13;;;;;;;;;;;11.40;99.90;;;;;;5094362;28;19908;-80
2021/12/24 12:23:53;;;;;;;;;;;11.40;99.90;;;;;;5094625;28;20025;-80
2021/12/24 12:26:48;;;;;;;;;;;11.30;99.90;;;;;;5094400;28;19915;-77
2021/12/24 12:29:16;;;;;;;;;;;11.20;99.90;;;;;;5062070;28;19917;-80
2021/12/24 12:31:42;;;;;;;;;;;11.20;99.90;;;;;;5075273;28;19916;-80
2021/12/24 12:34:26;;;;;;;;;;;11.20;99.90;;;;;;5094417;28;19964;-80
2021/12/24 12:36:52;;;;;;;;;;;11.20;99.90;;;;;;5094361;28;19908;-80
2021/12/24 12:39:27;;;;;;;;;;;11.30;99.90;;;;;;5094187;28;19919;-82
2021/12/24 12:41:53;;;;;;;;;;;11.30;99.90;;;;;;5094310;28;19908;-80
2021/12/24 12:44:19;;;;;;;;;;;11.20;99.90;;;;;;5094084;28;20003;-80
2021/12/24 12:46:47;;;;;;;;;;;11.20;99.90;;;;;;5094286;28;19908;-80
2021/12/24 12:49:17;;;;;;;;;;;11.20;99.90;;;;;;5093836;28;19908;-79
2021/12/24 12:51:54;;;;;;;;;;;11.20;99.90;;;;;;5093932;28;19994;-78
2021/12/24 12:54:32;;;;;;;;;;;11.30;99.90;;;;;;5094057;28;19919;-81
2021/12/24 12:57:16;;;;;;;;;;;11.30;99.90;;;;;;5094057;28;20001;-79
2021/12/24 13:00:01;;;;;;;;;;;11.30;99.90;;;;;;5093619;28;19968;-78
2021/12/24 13:02:45;;;;;;;;;;;11.40;99.90;;;;;;5094064;28;19908;-82
2021/12/24 13:05:13;;;;;;;;;;;11.50;99.90;;;;;;5093354;28;19908;-78
2021/12/24 13:07:39;;;;;;;;;;;11.70;99.90;;;;;;5093542;28;20296;-79
2021/12/24 13:10:05;;;;;;;;;;;12.10;99.90;;;;;;5092999;28;19908;-80
2021/12/24 13:12:30;;;;;;;;;;;12.60;99.90;;;;;;5093456;28;19947;-81
2021/12/24 13:14:59;;;;;;;;;;;12.70;99.90;;;;;;5093262;28;19920;-79
2021/12/24 13:17:32;;;;;;;;;;;12.50;99.90;;;;;;5074883;28;19999;-81
2021/12/24 13:20:12;;;;;;;;;;;12.20;99.90;;;;;;5074706;28;21430;-78
2021/12/24 13:22:38;;;;;;;;;;;11.90;99.90;;;;;;5093841;28;19912;-80
2021/12/24 13:25:09;;;;;;;;;;;11.60;99.90;;;;;;5093578;28;19908;-83
2021/12/24 13:27:39;;;;;;;;;;;11.40;99.90;;;;;;5075319;28;19995;-79
2021/12/24 13:30:08;;;;;;;;;;;11.30;99.90;;;;;;5093107;28;19915;-81
2021/12/24 13:32:37;;;;;;;;;;;11.30;99.90;;;;;;5073674;28;19916;-80
2021/12/24 13:35:02;;;;;;;;;;;11.20;99.90;;;;;;5075231;28;20303;-83
2021/12/24 13:37:32;;;;;;;;;;;11.20;99.90;;;;;;5092748;28;19912;-82
2021/12/24 13:39:57;;;;;;;;;;;11.20;99.90;;;;;;5092451;28;19912;-80
2021/12/24 13:42:23;;;;;;;;;;;11.20;99.90;;;;;;5093378;28;20021;-84
2021/12/24 13:44:57;;;;;;;;;;;11.30;99.90;;;;;;5093242;28;19969;-78
2021/12/24 13:47:42;;;;;;;;;;;11.30;99.90;;;;;;5093522;28;19908;-80
2021/12/24 13:55:25;;;;;;;;;;;11.20;99.90;;;;;;5081656;28;19912;-81
2021/12/24 13:57:52;;;;;;;;;;;11.20;99.90;;;;;;5093377;28;19912;-82
2021/12/24 14:00:18;;;;;;;;;;;11.20;99.90;;;;;;5092769;28;19912;-81
2021/12/24 14:02:51;;;;;;;;;;;11.20;99.90;;;;;;5093411;28;20382;-85
2021/12/24 14:05:18;;;;;;;;;;;11.30;99.90;;;;;;5093274;28;19916;-82
2021/12/24 14:07:46;;;;;;;;;;;11.30;99.90;;;;;;5075222;28;20273;-84
2021/12/24 14:10:22;;;;;;;;;;;11.20;99.90;;;;;;5092881;28;20411;-82
2021/12/24 14:12:47;;;;;;;;;;;11.30;99.90;;;;;;5093256;28;19936;-81
2021/12/24 14:15:16;;;;;;;;;;;11.20;99.90;;;;;;5074555;28;19975;-82
2021/12/24 14:18:04;;;;;;;;;;;11.20;99.90;;;;;;5093228;28;20010;-81
2021/12/24 14:20:58;;;;;;;;;;;11.20;99.90;;;;;;5092722;28;19969;-82
2021/12/24 14:23:18;;;;;;;;;;;11.30;99.90;;;;;;5092822;28;19912;-81
2021/12/24 14:25:54;;;;;;;;;;;11.30;99.90;;;;;;5093185;28;20003;-81
2021/12/24 14:28:22;;;;;;;;;;;11.30;99.90;;;;;;5093069;28;19908;-81
2021/12/24 14:30:48;;;;;;;;;;;11.20;99.90;;;;;;5092797;28;19942;-81
2021/12/24 14:33:13;;;;;;;;;;;11.20;99.90;;;;;;5073764;28;19921;-82
2021/12/24 14:35:44;;;;;;;;;;;11.20;99.90;;;;;;5074689;28;20006;-82
2021/12/24 14:38:15;;;;;;;;;;;11.20;99.90;;;;;;5092785;28;19915;-81
2021/12/24 14:40:41;;;;;;;;;;;11.20;99.90;;;;;;5092764;28;19946;-79
2021/12/24 14:43:14;;;;;;;;;;;11.20;99.90;;;;;;5074781;28;19931;-81
2021/12/24 14:45:44;;;;;;;;;;;11.20;99.90;;;;;;5074834;28;20284;-82
2021/12/24 14:48:20;;;;;;;;;;;11.40;99.90;;;;;;5092897;28;19914;-82
2021/12/24 14:50:47;;;;;;;;;;;11.70;99.90;;;;;;5095870;28;19909;-81
2021/12/24 14:53:24;;;;;;;;;;;11.80;99.90;;;;;;5096470;28;19915;-80
2021/12/24 14:56:00;;;;;;;;;;;12.10;99.90;;;;;;5096329;28;20295;-81
2021/12/24 14:58:29;;;;;;;;;;;12.00;99.90;;;;;;5096228;28;19923;-82
2021/12/24 15:00:55;;;;;;;;;;;12.00;99.90;;;;;;5077534;28;19908;-82
2021/12/24 15:03:21;;;;;;;;;;;11.90;99.90;;;;;;5096237;28;19908;-80
2021/12/24 15:05:48;;;;;;;;;;;11.80;99.90;;;;;;5096209;28;19908;-81
2021/12/24 15:08:26;;;;;;;;;;;11.70;99.90;;;;;;5095998;28;19908;-81
2021/12/24 15:11:00;;;;;;;;;;;11.70;99.90;;;;;;5095724;28;19908;-82
2021/12/24 15:13:27;;;;;;;;;;;11.60;99.90;;;;;;5095758;28;19908;-82
2021/12/24 15:15:53;;;;;;;;;;;11.60;99.90;;;;;;5096081;28;19912;-80
2021/12/24 15:18:19;;;;;;;;;;;11.60;99.90;;;;;;5095981;28;19916;-81
2021/12/24 15:20:44;;;;;;;;;;;11.60;99.90;;;;;;5087219;28;19908;-81
2021/12/24 15:23:10;;;;;;;;;;;11.60;99.90;;;;;;5075704;28;19909;-80
2021/12/24 15:25:36;;;;;;;;;;;11.60;99.90;;;;;;5075693;28;20003;-80
2021/12/24 15:28:08;;;;;;;;;;;11.60;99.90;;;;;;5075637;28;19954;-79
2021/12/24 15:30:33;;;;;;;;;;;11.50;99.90;;;;;;5057106;28;19916;-80
2021/12/24 15:32:59;;;;;;;;;;;11.50;99.90;;;;;;5056403;28;19920;-79
2021/12/24 15:35:25;;;;;;;;;;;11.50;99.90;;;;;;5057331;28;20011;-80
2021/12/24 15:37:50;;;;;;;;;;;11.50;99.90;;;;;;5075294;28;19916;-83
2021/12/24 15:40:16;;;;;;;;;;;11.50;99.90;;;;;;5078808;28;19934;-82
2021/12/24 15:42:43;;;;;;;;;;;11.50;99.90;;;;;;5095553;28;20257;-81
2021/12/24 15:45:09;;;;;;;;;;;11.50;99.90;;;;;;5077147;28;19959;-78
2021/12/24 15:47:34;;;;;;;;;;;11.50;99.90;;;;;;5095398;28;19908;-81
2021/12/24 15:50:00;;;;;;;;;;;11.50;99.90;;;;;;5095161;28;19915;-84
2021/12/24 15:52:26;;;;;;;;;;;11.50;99.90;;;;;;5077216;28;19991;-80
2021/12/24 15:54:52;;;;;;;;;;;11.40;99.90;;;;;;5095154;28;19999;-82
2021/12/24 15:57:18;;;;;;;;;;;11.40;99.90;;;;;;5077152;28;19940;-84
2021/12/24 15:59:44;;;;;;;;;;;11.40;99.90;;;;;;5076896;28;19908;-78